createdAt,value
2018-05-31T00:01:21.825Z,4.30
2018-05-31T00:03:49.272Z,4.50
2018-05-31T00:06:16.700Z,3.85
2018-05-31T00:08:44.372Z,4.32
2018-05-31T00:11:11.831Z,3.92
2018-05-31T00:13:39.288Z,3.33
2018-05-31T00:16:06.964Z,3.85
2018-05-31T00:18:34.396Z,3.72
2018-05-31T00:21:01.864Z,3.95
2018-05-31T00:23:29.659Z,3.95
2018-05-31T00:25:57.113Z,3.90
2018-05-31T00:28:24.578Z,4.12
2018-05-31T00:30:53.117Z,4.05
2018-05-31T00:33:20.584Z,3.97
2018-05-31T00:35:48.041Z,4.40
2018-05-31T00:38:15.995Z,3.75
2018-05-31T00:40:43.468Z,4.20
2018-05-31T00:43:11.948Z,3.55
2018-05-31T00:45:39.627Z,4.10
2018-05-31T00:48:07.064Z,3.80
2018-05-31T00:50:34.724Z,4.10
2018-05-31T00:53:02.480Z,3.92
2018-05-31T00:55:29.949Z,3.62
2018-05-31T00:57:57.411Z,3.97
2018-05-31T01:00:25.392Z,3.97
2018-05-31T01:02:52.819Z,3.90
2018-05-31T01:05:20.289Z,3.85
2018-05-31T01:07:47.745Z,4.47
2018-05-31T01:10:15.204Z,4.15
2018-05-31T01:12:42.668Z,5.30
2018-05-31T01:15:10.541Z,4.70
2018-05-31T01:17:37.985Z,4.72
2018-05-31T01:20:05.428Z,4.93
2018-05-31T01:22:32.988Z,4.97
2018-05-31T01:25:00.456Z,4.85
2018-05-31T01:27:27.944Z,4.55
2018-05-31T01:29:56.194Z,4.00
2018-05-31T01:32:23.624Z,4.12
2018-05-31T01:34:51.080Z,4.25
2018-05-31T01:37:18.548Z,4.00
2018-05-31T01:39:46.360Z,3.80
2018-05-31T01:42:14.580Z,4.57
2018-05-31T01:44:42.352Z,3.90
2018-05-31T01:47:09.824Z,3.80
2018-05-31T01:49:37.281Z,3.70
2018-05-31T01:52:04.759Z,3.20
2018-05-31T01:54:32.180Z,2.80
2018-05-31T01:56:59.621Z,3.28
2018-05-31T01:59:27.400Z,3.45
2018-05-31T02:01:54.848Z,3.45
2018-05-31T02:04:22.320Z,3.10
2018-05-31T02:06:50.120Z,3.37
2018-05-31T02:09:19.064Z,3.67
2018-05-31T02:11:46.520Z,2.85
2018-05-31T02:14:14.000Z,3.40
2018-05-31T02:16:41.461Z,3.45
2018-05-31T02:19:08.892Z,3.12
2018-05-31T02:21:36.664Z,3.30
2018-05-31T02:24:04.135Z,3.30
2018-05-31T02:26:31.564Z,3.05
2018-05-31T02:28:59.800Z,4.12
2018-05-31T02:31:29.584Z,3.58
2018-05-31T02:33:57.012Z,3.90
2018-05-31T02:36:24.468Z,4.00
2018-05-31T02:38:51.949Z,3.70
2018-05-31T02:41:19.406Z,3.78
2018-05-31T02:43:46.839Z,3.97
2018-05-31T02:46:14.616Z,4.30
2018-05-31T02:48:42.085Z,4.15
2018-05-31T02:51:09.539Z,4.22
2018-05-31T02:53:37.192Z,4.20
2018-05-31T02:56:04.663Z,4.53
2018-05-31T02:58:32.100Z,4.10
2018-05-31T03:00:59.896Z,4.18
2018-05-31T03:03:27.361Z,4.10
2018-05-31T03:05:54.815Z,3.90
2018-05-31T03:08:22.588Z,4.78
2018-05-31T03:10:51.524Z,3.35
2018-05-31T03:13:18.992Z,4.10
2018-05-31T03:15:46.496Z,4.05
2018-05-31T03:18:14.696Z,4.15
2018-05-31T03:20:42.229Z,4.12
2018-05-31T03:23:09.995Z,3.78
2018-05-31T03:25:38.211Z,4.00
2018-05-31T03:28:05.676Z,3.80
2018-05-31T03:30:33.476Z,4.10
2018-05-31T03:33:00.918Z,4.10
2018-05-31T03:35:28.376Z,4.12
2018-05-31T03:37:55.859Z,4.22
2018-05-31T03:40:23.276Z,4.40
2018-05-31T03:42:50.748Z,4.90
2018-05-31T03:45:18.338Z,4.37
2018-05-31T03:47:46.555Z,4.65
2018-05-31T03:50:14.032Z,4.82
2018-05-31T03:52:41.832Z,4.20
2018-05-31T03:55:09.248Z,4.82
2018-05-31T03:57:36.724Z,4.57
2018-05-31T04:00:04.409Z,4.78
2018-05-31T04:02:32.604Z,4.20
2018-05-31T04:05:00.064Z,4.45
2018-05-31T04:07:27.511Z,4.75
2018-05-31T04:09:55.128Z,3.90
2018-05-31T04:12:22.608Z,4.10
2018-05-31T04:14:51.160Z,3.85
2018-05-31T04:17:18.628Z,4.10
2018-05-31T04:19:46.084Z,4.25
2018-05-31T04:22:13.528Z,4.28
2018-05-31T04:24:41.000Z,4.00
2018-05-31T04:27:08.432Z,3.80
2018-05-31T04:29:36.117Z,3.97
2018-05-31T04:32:03.561Z,4.35
2018-05-31T04:34:31.217Z,4.53
2018-05-31T04:36:59.017Z,4.60
2018-05-31T04:39:26.446Z,4.43
2018-05-31T04:41:53.892Z,4.80
2018-05-31T04:44:21.605Z,4.55
2018-05-31T04:46:50.556Z,4.70
2018-05-31T04:49:17.996Z,5.03
2018-05-31T04:51:45.412Z,5.28
2018-05-31T04:54:14.001Z,5.47
2018-05-31T04:56:42.216Z,5.40
2018-05-31T04:59:09.640Z,4.60
2018-05-31T05:01:37.884Z,5.00
2018-05-31T05:04:05.318Z,5.15
2018-05-31T05:06:32.814Z,5.10
2018-05-31T05:09:00.564Z,4.80
2018-05-31T05:11:28.020Z,4.60
2018-05-31T05:13:55.483Z,4.45
2018-05-31T05:16:23.215Z,4.40
2018-05-31T05:18:50.688Z,4.50
2018-05-31T05:21:18.113Z,4.65
2018-05-31T05:23:45.892Z,4.22
2018-05-31T05:26:13.345Z,4.60
2018-05-31T05:28:41.528Z,4.80
2018-05-31T05:31:09.830Z,3.92
2018-05-31T05:33:37.263Z,4.55
2018-05-31T05:36:04.728Z,4.40
2018-05-31T05:38:32.508Z,4.10
2018-05-31T05:40:59.938Z,4.47
2018-05-31T05:43:27.417Z,4.25
2018-05-31T05:45:54.848Z,4.65
2018-05-31T05:48:22.324Z,4.37
2018-05-31T05:50:49.751Z,4.22
2018-05-31T05:53:17.424Z,4.45
2018-05-31T05:55:44.997Z,4.35
2018-05-31T05:58:12.440Z,3.67
2018-05-31T06:00:39.896Z,4.22
2018-05-31T06:03:07.338Z,3.55
2018-05-31T06:05:34.756Z,3.92
2018-05-31T06:08:02.976Z,4.10
2018-05-31T06:10:30.837Z,4.30
2018-05-31T06:12:58.252Z,4.53
2018-05-31T06:15:26.902Z,4.00
2018-05-31T06:17:54.364Z,4.15
2018-05-31T06:20:21.920Z,4.37
2018-05-31T06:22:49.409Z,4.22
2018-05-31T06:25:16.863Z,4.40
2018-05-31T06:27:44.298Z,4.40
2018-05-31T06:30:12.044Z,4.25
2018-05-31T06:32:39.616Z,4.30
2018-05-31T06:35:07.083Z,4.70
2018-05-31T06:37:35.486Z,4.30
2018-05-31T06:40:04.268Z,4.43
2018-05-31T06:42:31.713Z,4.25
2018-05-31T06:44:59.151Z,4.60
2018-05-31T06:47:26.628Z,4.15
2018-05-31T06:49:54.096Z,4.50
2018-05-31T06:52:22.298Z,4.60
2018-05-31T06:54:49.999Z,5.05
2018-05-31T06:57:17.468Z,4.95
2018-05-31T06:59:44.920Z,4.53
2018-05-31T07:02:13.080Z,4.47
2018-05-31T07:04:40.534Z,4.35
2018-05-31T07:07:07.966Z,5.05
2018-05-31T07:09:35.441Z,5.15
2018-05-31T07:12:02.929Z,4.93
2018-05-31T07:14:30.356Z,4.50
2018-05-31T07:16:57.928Z,4.75
2018-05-31T07:19:25.372Z,4.40
2018-05-31T07:21:52.808Z,4.50
2018-05-31T07:24:20.281Z,4.55
2018-05-31T07:26:47.868Z,3.97
2018-05-31T07:29:15.306Z,4.45
2018-05-31T07:31:43.732Z,4.35
2018-05-31T07:34:11.181Z,4.35
2018-05-31T07:36:38.647Z,5.00
2018-05-31T07:39:06.372Z,4.60
2018-05-31T07:41:33.811Z,4.68
2018-05-31T07:44:01.234Z,4.75
2018-05-31T07:46:29.796Z,4.97
2018-05-31T07:48:57.224Z,5.00
2018-05-31T07:51:24.692Z,5.03
2018-05-31T07:53:52.176Z,4.72
2018-05-31T07:56:19.736Z,4.72
2018-05-31T07:58:47.180Z,5.12
2018-05-31T08:01:14.660Z,4.82
2018-05-31T08:03:42.876Z,4.55
2018-05-31T08:06:10.335Z,4.57
2018-05-31T08:08:37.812Z,5.20
2018-05-31T08:11:05.248Z,5.00
2018-05-31T08:13:32.697Z,4.15
2018-05-31T08:16:00.417Z,3.83
2018-05-31T08:18:27.831Z,3.95
2018-05-31T08:20:55.304Z,3.90
2018-05-31T08:23:22.809Z,3.20
2018-05-31T08:25:51.012Z,3.60
2018-05-31T08:28:18.469Z,3.20
2018-05-31T08:30:45.921Z,3.75
2018-05-31T08:33:13.508Z,3.70
2018-05-31T08:35:40.997Z,3.60
2018-05-31T08:38:08.765Z,3.92
2018-05-31T08:40:36.216Z,4.37
2018-05-31T08:43:03.669Z,4.10
2018-05-31T08:45:31.704Z,3.78
2018-05-31T08:47:59.172Z,3.62
2018-05-31T08:50:26.632Z,3.60
2018-05-31T08:52:54.076Z,4.30
2018-05-31T08:55:21.516Z,3.60
2018-05-31T08:57:48.944Z,3.60
2018-05-31T09:00:16.429Z,3.40
2018-05-31T09:02:43.907Z,3.00
2018-05-31T09:05:11.326Z,2.75
2018-05-31T09:07:39.164Z,3.17
2018-05-31T09:10:06.699Z,3.45
2018-05-31T09:12:34.132Z,3.33
2018-05-31T09:15:01.640Z,3.40
2018-05-31T09:17:29.864Z,3.00
2018-05-31T09:19:57.320Z,3.20
2018-05-31T09:22:25.021Z,2.97
2018-05-31T09:24:52.447Z,3.08
2018-05-31T09:27:19.920Z,3.20
2018-05-31T09:29:47.404Z,3.20
2018-05-31T09:32:14.848Z,3.22
2018-05-31T09:34:42.628Z,3.03
2018-05-31T09:37:10.876Z,3.05
2018-05-31T09:39:38.332Z,3.25
2018-05-31T09:42:05.764Z,3.40
2018-05-31T09:44:33.436Z,3.25
2018-05-31T09:47:00.877Z,4.00
2018-05-31T09:49:28.340Z,3.60
2018-05-31T09:51:56.080Z,3.30
2018-05-31T09:54:23.508Z,3.40
2018-05-31T09:56:50.968Z,3.70
2018-05-31T09:59:18.792Z,3.50
2018-05-31T10:01:46.268Z,3.30
2018-05-31T10:04:13.725Z,3.03
2018-05-31T10:06:41.576Z,3.72
2018-05-31T10:09:09.014Z,3.30
2018-05-31T10:11:36.450Z,3.42
2018-05-31T10:14:03.900Z,3.60
2018-05-31T10:16:31.360Z,3.50
2018-05-31T10:18:59.545Z,3.47
2018-05-31T10:21:27.024Z,3.37
2018-05-31T10:23:54.482Z,2.85
2018-05-31T10:26:21.937Z,3.25
2018-05-31T10:28:49.419Z,2.85
2018-05-31T10:31:16.852Z,3.00
2018-05-31T10:33:44.308Z,2.80
2018-05-31T10:36:11.895Z,2.97
2018-05-31T10:38:39.376Z,2.95
2018-05-31T10:41:06.792Z,3.10
2018-05-31T10:43:34.596Z,2.75
2018-05-31T10:46:02.766Z,3.20
2018-05-31T10:48:31.095Z,3.03
2018-05-31T10:50:58.776Z,2.95
2018-05-31T10:53:26.240Z,2.97
2018-05-31T10:55:53.676Z,2.92
2018-05-31T10:58:21.142Z,2.60
2018-05-31T11:00:48.582Z,3.00
2018-05-31T11:03:16.006Z,2.85
2018-05-31T11:05:44.537Z,3.00
2018-05-31T11:08:11.987Z,3.00
2018-05-31T11:10:39.434Z,2.60
2018-05-31T11:13:07.156Z,3.00
2018-05-31T11:15:35.387Z,2.90
2018-05-31T11:18:03.567Z,2.80
2018-05-31T11:20:31.011Z,2.90
2018-05-31T11:22:58.464Z,3.03
2018-05-31T11:25:25.917Z,2.97
2018-05-31T11:27:53.391Z,3.08
2018-05-31T11:30:20.812Z,3.05
2018-05-31T11:32:48.264Z,3.08
2018-05-31T11:35:15.716Z,2.90
2018-05-31T11:37:43.919Z,2.95
2018-05-31T11:40:11.381Z,3.15
2018-05-31T11:42:38.891Z,3.12
2018-05-31T11:45:06.321Z,2.67
2018-05-31T11:47:33.804Z,3.25
2018-05-31T11:50:01.260Z,2.45
2018-05-31T11:52:28.708Z,2.95
2018-05-31T11:54:56.484Z,2.70
2018-05-31T11:57:23.931Z,2.83
2018-05-31T11:59:51.396Z,3.03
2018-05-31T12:02:18.852Z,3.08
2018-05-31T12:04:48.012Z,2.72
2018-05-31T12:07:15.480Z,2.97
2018-05-31T12:09:42.941Z,3.00
2018-05-31T12:12:10.760Z,2.62
2018-05-31T12:14:39.004Z,2.62
2018-05-31T12:17:06.452Z,2.72
2018-05-31T12:19:34.668Z,2.85
2018-05-31T12:22:02.872Z,2.45
2018-05-31T12:24:30.343Z,2.47
2018-05-31T12:26:57.775Z,2.65
2018-05-31T12:29:25.277Z,2.55
2018-05-31T12:31:52.728Z,2.50
2018-05-31T12:34:20.195Z,2.87
2018-05-31T12:36:47.667Z,2.70
2018-05-31T12:39:16.004Z,2.33
2018-05-31T12:41:43.452Z,2.75
2018-05-31T12:44:10.949Z,2.42
2018-05-31T12:46:38.364Z,2.50
2018-05-31T12:49:05.833Z,2.25
2018-05-31T12:51:33.320Z,2.25
2018-05-31T12:54:00.736Z,1.95
2018-05-31T12:56:28.175Z,1.77
2018-05-31T12:58:55.640Z,2.10
2018-05-31T13:01:23.063Z,1.73
2018-05-31T13:03:50.492Z,1.80
2018-05-31T13:06:18.720Z,1.90
2018-05-31T13:08:46.184Z,1.92
2018-05-31T13:11:13.608Z,1.90
2018-05-31T13:13:41.150Z,1.95
2018-05-31T13:16:09.395Z,1.75
2018-05-31T13:18:36.859Z,2.05
2018-05-31T13:21:04.288Z,2.03
2018-05-31T13:23:32.092Z,1.95
2018-05-31T13:25:59.560Z,2.15
2018-05-31T13:28:27.017Z,1.80
2018-05-31T13:30:54.743Z,2.20
2018-05-31T13:33:22.233Z,2.28
2018-05-31T13:35:49.645Z,2.00
2018-05-31T13:38:17.315Z,2.17
2018-05-31T13:40:44.888Z,2.40
2018-05-31T13:43:12.363Z,2.10
2018-05-31T13:45:39.828Z,2.62
2018-05-31T13:48:08.032Z,2.30
2018-05-31T13:50:35.483Z,2.10
2018-05-31T13:53:04.007Z,2.10
2018-05-31T13:55:31.473Z,2.50
2018-05-31T13:57:58.932Z,2.22
2018-05-31T14:00:26.393Z,2.60
2018-05-31T14:02:53.872Z,2.60
2018-05-31T14:05:21.296Z,2.83
2018-05-31T14:07:49.092Z,2.40
2018-05-31T14:10:16.540Z,2.25
2018-05-31T14:12:43.967Z,2.35
2018-05-31T14:15:11.436Z,2.22
2018-05-31T14:17:39.295Z,2.40
2018-05-31T14:20:06.732Z,2.40
2018-05-31T14:22:34.196Z,2.17
2018-05-31T14:25:02.009Z,2.30
2018-05-31T14:27:30.954Z,2.30
2018-05-31T14:29:58.384Z,2.28
2018-05-31T14:32:26.225Z,2.33
2018-05-31T14:34:54.492Z,2.20
2018-05-31T14:37:21.957Z,2.58
2018-05-31T14:39:49.371Z,2.40
2018-05-31T14:42:18.089Z,2.30
2018-05-31T14:44:45.544Z,2.45
2018-05-31T14:47:13.020Z,2.50
2018-05-31T14:49:40.444Z,2.30
2018-05-31T14:52:07.900Z,2.45
2018-05-31T14:54:35.328Z,2.25
2018-05-31T14:57:02.817Z,2.00
2018-05-31T14:59:30.404Z,2.10
2018-05-31T15:01:59.368Z,2.22
2018-05-31T15:04:26.840Z,2.05
2018-05-31T15:06:54.308Z,2.10
2018-05-31T15:09:21.756Z,2.10
2018-05-31T15:11:49.344Z,2.17
2018-05-31T15:14:17.583Z,2.30
2018-05-31T15:16:45.047Z,2.03
2018-05-31T15:19:12.812Z,2.05
2018-05-31T15:21:40.268Z,2.28
2018-05-31T15:24:07.812Z,2.20
2018-05-31T15:26:35.604Z,2.20
2018-05-31T15:29:03.065Z,2.25
2018-05-31T15:31:30.482Z,2.30
2018-05-31T15:33:57.936Z,2.22
2018-05-31T15:36:25.536Z,2.35
2018-05-31T15:38:52.960Z,2.40
2018-05-31T15:41:20.450Z,2.28
2018-05-31T15:43:47.864Z,2.12
2018-05-31T15:46:15.315Z,2.20
2018-05-31T15:48:43.751Z,2.10
2018-05-31T15:51:11.969Z,2.40
2018-05-31T15:53:39.388Z,2.28
2018-05-31T15:56:07.186Z,2.20
2018-05-31T15:58:34.600Z,2.42
2018-05-31T16:01:02.792Z,2.30
2018-05-31T16:03:30.269Z,2.65
2018-05-31T16:05:57.732Z,2.50
2018-05-31T16:08:25.205Z,2.62
2018-05-31T16:10:52.994Z,2.95
2018-05-31T16:13:21.272Z,2.30
2018-05-31T16:15:48.696Z,2.40
2018-05-31T16:18:16.168Z,2.60
2018-05-31T16:20:44.229Z,2.72
2018-05-31T16:23:11.684Z,2.37
2018-05-31T16:25:39.125Z,2.58
2018-05-31T16:28:06.800Z,2.97
2018-05-31T16:30:34.251Z,2.58
2018-05-31T16:33:01.708Z,2.78
2018-05-31T16:35:29.416Z,2.70
2018-05-31T16:37:56.877Z,2.72
2018-05-31T16:40:24.292Z,2.78
2018-05-31T16:42:52.056Z,2.55
2018-05-31T16:45:19.660Z,2.70
2018-05-31T16:47:47.880Z,2.47
2018-05-31T16:50:15.411Z,2.90
2018-05-31T16:52:42.795Z,2.80
2018-05-31T16:55:10.272Z,2.78
2018-05-31T16:57:38.028Z,3.10
2018-05-31T17:00:05.448Z,3.00
2018-05-31T17:02:32.880Z,2.90
2018-05-31T17:05:01.099Z,2.72
2018-05-31T17:07:28.537Z,2.78
2018-05-31T17:09:56.149Z,2.80
2018-05-31T17:12:23.831Z,3.00
2018-05-31T17:14:51.351Z,3.30
2018-05-31T17:17:19.516Z,2.60
2018-05-31T17:19:46.993Z,2.87
2018-05-31T17:22:14.480Z,2.70
2018-05-31T17:24:42.655Z,2.60
2018-05-31T17:27:10.904Z,2.53
2018-05-31T17:29:38.330Z,3.12
2018-05-31T17:32:05.765Z,2.80
2018-05-31T17:34:34.388Z,2.60
2018-05-31T17:37:01.860Z,2.55
2018-05-31T17:39:30.212Z,3.05
2018-05-31T17:41:57.665Z,2.83
2018-05-31T17:44:25.128Z,2.97
2018-05-31T17:46:52.584Z,2.85
2018-05-31T17:49:20.340Z,2.65
2018-05-31T17:51:47.772Z,2.58
2018-05-31T17:54:15.973Z,2.72
2018-05-31T17:56:43.755Z,2.78
2018-05-31T17:59:11.344Z,2.90
2018-05-31T18:01:38.812Z,2.70
2018-05-31T18:04:06.840Z,2.65
2018-05-31T18:06:34.281Z,2.53
2018-05-31T18:09:02.676Z,2.80
2018-05-31T18:11:30.124Z,2.70
2018-05-31T18:13:57.577Z,2.83
2018-05-31T18:16:25.560Z,2.92
2018-05-31T18:18:53.029Z,2.90
2018-05-31T18:21:20.464Z,2.70
2018-05-31T18:23:48.236Z,2.78
2018-05-31T18:26:15.674Z,3.00
2018-05-31T18:28:43.084Z,2.80
2018-05-31T18:31:11.367Z,3.08
2018-05-31T18:33:39.587Z,2.70
2018-05-31T18:36:07.004Z,3.15
2018-05-31T18:38:35.570Z,2.92
2018-05-31T18:41:03.153Z,3.30
2018-05-31T18:43:31.368Z,3.12
2018-05-31T18:45:58.826Z,3.33
2018-05-31T18:48:27.158Z,3.40
2018-05-31T18:50:54.596Z,3.53
2018-05-31T18:53:22.024Z,3.28
2018-05-31T18:55:49.492Z,3.42
2018-05-31T18:58:17.447Z,3.45
2018-05-31T19:00:44.927Z,3.60
2018-05-31T19:03:12.357Z,3.37
2018-05-31T19:05:39.812Z,3.67
2018-05-31T19:08:08.152Z,3.40
2018-05-31T19:10:36.364Z,3.40
2018-05-31T19:13:03.820Z,4.10
2018-05-31T19:15:31.287Z,3.97
2018-05-31T19:17:59.707Z,3.47
2018-05-31T19:20:27.164Z,3.75
2018-05-31T19:22:54.870Z,3.50
2018-05-31T19:25:22.291Z,3.95
2018-05-31T19:27:51.276Z,3.70
2018-05-31T19:30:18.732Z,3.50
2018-05-31T19:32:46.176Z,3.70
2018-05-31T19:35:13.616Z,3.65
2018-05-31T19:37:41.077Z,3.50
2018-05-31T19:40:09.239Z,3.78
2018-05-31T19:42:36.688Z,3.60
2018-05-31T19:45:04.147Z,3.65
2018-05-31T19:47:31.957Z,3.80
2018-05-31T19:49:59.372Z,3.90
2018-05-31T19:52:26.813Z,3.12
2018-05-31T19:54:54.592Z,3.87
2018-05-31T19:57:22.040Z,3.78
2018-05-31T19:59:49.497Z,3.17
2018-05-31T20:02:17.313Z,3.25
2018-05-31T20:04:44.776Z,4.10
2018-05-31T20:07:12.988Z,3.30
2018-05-31T20:09:40.712Z,3.30
2018-05-31T20:12:08.164Z,3.80
2018-05-31T20:14:35.592Z,3.65
2018-05-31T20:17:03.083Z,4.12
2018-05-31T20:19:31.428Z,3.95
2018-05-31T20:21:58.891Z,3.45
2018-05-31T20:24:26.332Z,3.30
2018-05-31T20:26:53.801Z,3.55
2018-05-31T20:29:21.697Z,3.28
2018-05-31T20:31:49.920Z,3.40
2018-05-31T20:34:17.376Z,3.70
2018-05-31T20:36:44.832Z,3.62
2018-05-31T20:39:12.267Z,3.40
2018-05-31T20:41:39.687Z,3.50
2018-05-31T20:44:08.677Z,3.55
2018-05-31T20:46:36.132Z,3.67
2018-05-31T20:49:03.563Z,2.97
2018-05-31T20:51:31.053Z,3.20
2018-05-31T20:53:58.595Z,3.00
2018-05-31T20:56:26.076Z,3.97
2018-05-31T20:58:53.788Z,3.47
2018-05-31T21:01:21.248Z,3.40
2018-05-31T21:03:48.705Z,3.33
2018-05-31T21:06:16.379Z,3.10
2018-05-31T21:08:44.534Z,3.08
2018-05-31T21:11:12.009Z,3.90
2018-05-31T21:13:39.469Z,3.58
2018-05-31T21:16:07.239Z,3.28
2018-05-31T21:18:35.649Z,3.60
2018-05-31T21:21:03.104Z,3.72
2018-05-31T21:23:30.561Z,3.58
2018-05-31T21:25:58.788Z,3.50
2018-05-31T21:28:26.244Z,3.58
2018-05-31T21:30:53.660Z,3.67
2018-05-31T21:33:22.192Z,3.62
2018-05-31T21:35:49.665Z,3.15
2018-05-31T21:38:17.096Z,3.05
2018-05-31T21:40:44.563Z,3.47
2018-05-31T21:43:12.064Z,3.42
2018-05-31T21:45:40.543Z,3.35
2018-05-31T21:48:07.960Z,3.45
2018-05-31T21:50:35.428Z,3.37
2018-05-31T21:53:02.874Z,3.47
2018-05-31T21:55:30.312Z,3.30
2018-05-31T21:57:57.751Z,3.22
2018-05-31T22:00:26.268Z,3.35
2018-05-31T22:02:53.740Z,3.47
2018-05-31T22:05:21.175Z,3.50
2018-05-31T22:07:48.884Z,3.75
2018-05-31T22:10:16.332Z,3.37
2018-05-31T22:12:43.800Z,3.80
2018-05-31T22:15:11.260Z,3.50
2018-05-31T22:17:40.988Z,3.70
2018-05-31T22:20:08.412Z,4.07
2018-05-31T22:22:35.881Z,4.20
2018-05-31T22:25:04.157Z,4.12
2018-05-31T22:27:31.572Z,3.78
2018-05-31T22:29:59.014Z,3.12
2018-05-31T22:32:26.469Z,3.37
2018-05-31T22:34:53.892Z,2.62
2018-05-31T22:37:22.132Z,2.25
2018-05-31T22:39:49.908Z,2.05
2018-05-31T22:42:17.336Z,2.60
2018-05-31T22:44:44.778Z,2.37
2018-05-31T22:47:12.548Z,2.50
2018-05-31T22:49:40.128Z,2.40
2018-05-31T22:52:07.592Z,2.60
2018-05-31T22:54:35.032Z,2.55
2018-05-31T22:57:02.505Z,2.90
2018-05-31T22:59:29.944Z,2.70
2018-05-31T23:01:58.109Z,1.90
2018-05-31T23:04:25.548Z,1.80
2018-05-31T23:06:53.768Z,1.87
2018-05-31T23:09:21.516Z,2.05
2018-05-31T23:11:48.960Z,1.90
2018-05-31T23:14:16.545Z,1.70
2018-05-31T23:16:44.029Z,1.95
2018-05-31T23:19:11.484Z,1.95
2018-05-31T23:21:38.948Z,1.65
2018-05-31T23:24:06.604Z,1.80
2018-05-31T23:26:34.276Z,2.12
2018-05-31T23:29:02.519Z,2.45
2018-05-31T23:31:30.296Z,2.65
2018-05-31T23:33:57.723Z,2.78
2018-05-31T23:36:25.164Z,2.90
2018-05-31T23:38:52.628Z,3.53
2018-05-31T23:41:20.084Z,3.30
2018-05-31T23:43:47.508Z,3.80
2018-05-31T23:46:15.155Z,3.35
2018-05-31T23:48:42.608Z,3.75
2018-05-31T23:51:10.068Z,3.55
2018-05-31T23:53:38.300Z,3.92
2018-05-31T23:56:05.773Z,3.97
2018-05-31T23:58:33.212Z,3.85
